createdAt,value
2022-12-15T00:01:19.256Z,53.40
2022-12-15T00:04:07.503Z,53.20
2022-12-15T00:06:55.596Z,53.20
2022-12-15T00:09:44.096Z,53.20
2022-12-15T00:12:32.233Z,52.90
2022-12-15T00:15:20.573Z,52.80
2022-12-15T00:18:08.688Z,52.60
2022-12-15T00:20:56.624Z,53.10
2022-12-15T00:23:44.692Z,52.50
2022-12-15T00:26:32.933Z,52.00
2022-12-15T00:29:21.423Z,51.90
2022-12-15T00:32:09.530Z,51.70
2022-12-15T00:34:57.893Z,51.50
2022-12-15T00:37:46.082Z,51.40
2022-12-15T00:40:16.517Z,51.50
2022-12-15T00:42:49.579Z,51.80
2022-12-15T00:45:20.331Z,51.70
2022-12-15T00:47:50.531Z,51.80
2022-12-15T00:50:38.905Z,52.50
2022-12-15T00:53:28.808Z,52.10
2022-12-15T00:56:20.160Z,52.10
2022-12-15T00:59:08.250Z,52.20
2022-12-15T01:01:56.518Z,52.20
2022-12-15T01:04:45.355Z,52.00
2022-12-15T01:07:34.197Z,52.00
2022-12-15T01:10:22.327Z,51.90
2022-12-15T01:13:11.140Z,51.90
2022-12-15T01:16:00.219Z,51.50
2022-12-15T01:18:49.748Z,51.30
2022-12-15T01:21:24.087Z,51.00
2022-12-15T01:23:55.698Z,50.90
2022-12-15T01:26:26.236Z,50.90
2022-12-15T01:28:56.693Z,50.60
2022-12-15T01:31:27.093Z,50.80
2022-12-15T01:33:57.620Z,50.70
2022-12-15T01:36:27.974Z,50.80
2022-12-15T01:38:58.225Z,50.60
2022-12-15T01:41:28.877Z,50.60
2022-12-15T01:44:18.537Z,50.40
2022-12-15T01:46:51.430Z,50.40
2022-12-15T01:49:30.475Z,50.70
2022-12-15T01:52:03.983Z,50.60
2022-12-15T01:55:11.116Z,50.70
2022-12-15T01:57:41.974Z,50.30
2022-12-15T02:00:12.516Z,50.30
2022-12-15T02:02:43.220Z,49.80
2022-12-15T02:05:14.037Z,50.10
2022-12-15T02:07:44.955Z,50.10
2022-12-15T02:10:15.436Z,50.00
2022-12-15T02:13:00.792Z,49.60
2022-12-15T02:15:37.176Z,49.90
2022-12-15T02:18:10.143Z,50.00
2022-12-15T02:21:02.245Z,49.90
2022-12-15T02:23:47.012Z,49.00
2022-12-15T02:26:35.091Z,49.30
2022-12-15T02:29:41.525Z,48.50
2022-12-15T02:32:30.153Z,48.80
2022-12-15T02:35:14.464Z,48.90
2022-12-15T02:37:49.766Z,48.30
2022-12-15T02:40:20.554Z,48.80
2022-12-15T02:42:58.047Z,48.60
2022-12-15T02:45:40.139Z,48.50
2022-12-15T02:48:20.016Z,47.90
2022-12-15T02:51:13.916Z,48.30
2022-12-15T02:54:18.135Z,46.70
2022-12-15T02:57:22.258Z,45.40
2022-12-15T03:00:06.488Z,46.90
2022-12-15T03:02:40.192Z,47.20
2022-12-15T03:05:11.097Z,47.40
2022-12-15T03:07:41.462Z,47.30
2022-12-15T03:10:13.813Z,47.80
2022-12-15T03:12:44.075Z,47.30
2022-12-15T03:15:15.223Z,47.30
2022-12-15T03:17:45.555Z,47.60
2022-12-15T03:20:15.936Z,47.80
2022-12-15T03:22:46.262Z,47.70
2022-12-15T03:25:16.612Z,47.70
2022-12-15T03:27:49.121Z,47.10
2022-12-15T03:30:19.394Z,47.60
2022-12-15T03:32:49.812Z,47.00
2022-12-15T03:35:20.010Z,47.60
2022-12-15T03:37:50.213Z,47.70
2022-12-15T03:40:20.611Z,47.60
2022-12-15T03:42:50.841Z,47.20
2022-12-15T03:45:26.707Z,47.30
2022-12-15T03:47:58.287Z,47.50
2022-12-15T03:50:31.020Z,47.80
2022-12-15T03:53:03.963Z,47.70
2022-12-15T03:55:34.971Z,47.50
2022-12-15T03:58:05.314Z,47.60
2022-12-15T04:00:36.029Z,47.00
2022-12-15T04:03:06.407Z,46.60
2022-12-15T04:05:38.022Z,47.30
2022-12-15T04:08:08.821Z,47.10
2022-12-15T04:10:39.305Z,46.90
2022-12-15T04:13:14.308Z,47.10
2022-12-15T04:15:44.597Z,47.20
2022-12-15T04:18:14.802Z,47.10
2022-12-15T04:20:45.155Z,46.50
2022-12-15T04:23:15.651Z,46.70
2022-12-15T04:26:03.774Z,46.50
2022-12-15T04:28:51.707Z,46.80
2022-12-15T04:31:48.203Z,46.90
2022-12-15T04:34:43.683Z,46.10
2022-12-15T04:37:34.677Z,46.50
2022-12-15T04:40:22.942Z,45.90
2022-12-15T04:43:11.161Z,46.60
2022-12-15T04:45:59.226Z,46.90
2022-12-15T04:48:47.520Z,46.70
2022-12-15T04:51:36.036Z,46.60
2022-12-15T04:54:25.379Z,47.00
2022-12-15T04:57:13.472Z,46.70
2022-12-15T05:00:01.517Z,46.60
2022-12-15T05:02:49.945Z,46.70
2022-12-15T05:05:40.422Z,45.80
2022-12-15T05:08:28.659Z,46.10
2022-12-15T05:11:19.635Z,46.40
2022-12-15T05:14:07.628Z,46.20
2022-12-15T05:16:56.354Z,46.20
2022-12-15T05:19:44.513Z,46.50
2022-12-15T05:22:32.702Z,46.50
2022-12-15T05:25:20.704Z,46.20
2022-12-15T05:28:08.943Z,45.60
2022-12-15T05:30:57.283Z,46.50
2022-12-15T05:33:28.404Z,46.70
2022-12-15T05:36:01.739Z,46.60
2022-12-15T05:38:31.980Z,45.90
2022-12-15T05:41:03.024Z,46.00
2022-12-15T05:43:33.615Z,46.00
2022-12-15T05:46:09.257Z,46.50
2022-12-15T05:48:39.683Z,46.60
2022-12-15T05:51:11.979Z,46.30
2022-12-15T05:53:43.322Z,45.90
2022-12-15T05:56:16.102Z,46.40
2022-12-15T05:58:46.584Z,46.50
2022-12-15T06:01:21.185Z,46.70
2022-12-15T06:03:51.810Z,46.20
2022-12-15T06:06:23.002Z,46.20
2022-12-15T06:08:53.782Z,46.40
2022-12-15T06:11:24.722Z,46.30
2022-12-15T06:13:57.162Z,46.50
2022-12-15T06:16:29.896Z,46.50
2022-12-15T06:19:02.709Z,46.60
2022-12-15T06:21:38.426Z,46.70
2022-12-15T06:24:10.284Z,46.50
2022-12-15T06:26:42.492Z,46.50
2022-12-15T06:29:15.260Z,46.20
2022-12-15T06:31:45.900Z,46.10
2022-12-15T06:34:17.914Z,46.30
2022-12-15T06:36:48.432Z,46.20
2022-12-15T06:39:19.131Z,45.90
2022-12-15T06:41:49.523Z,46.00
2022-12-15T06:44:20.467Z,46.20
2022-12-15T06:46:50.851Z,46.30
2022-12-15T06:49:21.111Z,46.40
2022-12-15T06:51:53.268Z,45.90
2022-12-15T06:54:25.317Z,45.80
2022-12-15T06:56:59.995Z,46.10
2022-12-15T06:59:31.841Z,46.50
2022-12-15T07:02:07.393Z,46.90
2022-12-15T07:04:40.750Z,46.90
2022-12-15T07:07:13.231Z,47.10
2022-12-15T07:09:43.554Z,47.30
2022-12-15T07:12:15.568Z,47.30
2022-12-15T07:14:50.128Z,47.50
2022-12-15T07:17:23.536Z,47.50
2022-12-15T07:19:53.935Z,47.50
2022-12-15T07:22:27.170Z,47.60
2022-12-15T07:24:57.469Z,47.60
2022-12-15T07:27:27.806Z,47.80
2022-12-15T07:29:58.183Z,47.80
2022-12-15T07:32:28.505Z,47.80
2022-12-15T07:34:58.882Z,47.80
2022-12-15T07:37:31.640Z,47.80
2022-12-15T07:40:02.023Z,47.90
2022-12-15T07:42:33.317Z,48.00
2022-12-15T07:45:03.618Z,48.00
2022-12-15T07:47:34.344Z,48.20
2022-12-15T07:50:05.029Z,48.10
2022-12-15T07:52:35.246Z,48.10
2022-12-15T07:55:05.913Z,48.20
2022-12-15T07:57:36.073Z,48.30
2022-12-15T08:00:12.257Z,48.30
2022-12-15T08:02:44.390Z,48.20
2022-12-15T08:05:14.965Z,48.20
2022-12-15T08:07:45.228Z,48.20
2022-12-15T08:10:15.537Z,48.20
2022-12-15T08:13:04.497Z,48.20
2022-12-15T08:15:41.158Z,48.20
2022-12-15T08:18:11.459Z,48.30
2022-12-15T08:20:42.043Z,48.20
2022-12-15T08:23:12.473Z,48.10
2022-12-15T08:25:42.628Z,48.30
2022-12-15T08:28:13.099Z,48.20
2022-12-15T08:30:43.372Z,48.10
2022-12-15T08:33:13.958Z,48.10
2022-12-15T08:35:56.229Z,48.10
2022-12-15T08:38:37.942Z,48.20
2022-12-15T08:41:20.251Z,48.20
2022-12-15T08:43:51.555Z,48.40
2022-12-15T08:46:30.843Z,48.30
2022-12-15T08:49:01.857Z,48.20
2022-12-15T08:51:34.190Z,48.30
2022-12-15T08:54:04.991Z,48.20
2022-12-15T08:56:35.271Z,48.30
2022-12-15T08:59:06.118Z,48.20
2022-12-15T09:01:41.030Z,48.20
2022-12-15T09:04:11.878Z,48.20
2022-12-15T09:06:42.324Z,48.20
2022-12-15T09:09:15.864Z,48.10
2022-12-15T09:11:46.213Z,48.20
2022-12-15T09:14:18.989Z,48.20
2022-12-15T09:16:52.099Z,48.20
2022-12-15T09:19:22.677Z,48.30
2022-12-15T09:21:52.906Z,48.40
2022-12-15T09:24:34.022Z,48.30
2022-12-15T09:27:05.191Z,48.10
2022-12-15T09:29:35.884Z,48.20
2022-12-15T09:32:12.148Z,48.20
2022-12-15T09:34:44.524Z,48.30
2022-12-15T09:37:16.025Z,48.20
2022-12-15T09:39:46.342Z,48.20
2022-12-15T09:42:34.659Z,48.30
2022-12-15T09:45:36.664Z,48.20
2022-12-15T09:48:14.750Z,48.10
2022-12-15T09:50:47.551Z,48.30
2022-12-15T09:53:53.024Z,48.30
2022-12-15T09:56:24.020Z,48.40
2022-12-15T09:59:02.591Z,48.00
2022-12-15T10:01:51.043Z,48.40
2022-12-15T10:04:46.430Z,48.20
2022-12-15T10:07:21.185Z,48.30
2022-12-15T10:09:51.402Z,48.40
2022-12-15T10:12:32.151Z,48.30
2022-12-15T10:15:02.698Z,48.20
2022-12-15T10:17:54.515Z,48.40
2022-12-15T10:20:30.782Z,48.40
2022-12-15T10:23:12.196Z,48.20
2022-12-15T10:25:45.065Z,48.10
2022-12-15T10:28:19.464Z,48.50
2022-12-15T10:31:09.987Z,48.50
2022-12-15T10:33:50.144Z,48.60
2022-12-15T10:36:20.625Z,48.60
2022-12-15T10:38:51.452Z,48.80
2022-12-15T10:41:29.712Z,48.70
2022-12-15T10:44:00.231Z,48.60
2022-12-15T10:46:33.461Z,48.70
2022-12-15T10:49:24.744Z,48.80
2022-12-15T10:52:04.501Z,48.90
2022-12-15T10:54:48.989Z,49.00
2022-12-15T10:57:33.192Z,49.10
2022-12-15T11:00:20.579Z,49.10
2022-12-15T11:02:51.081Z,49.20
2022-12-15T11:05:22.124Z,49.20
2022-12-15T11:07:55.687Z,49.20
2022-12-15T11:10:55.333Z,49.10
2022-12-15T11:16:21.586Z,49.20
2022-12-15T11:19:07.549Z,49.30
2022-12-15T11:21:47.977Z,49.30
2022-12-15T11:24:37.528Z,49.30
2022-12-15T11:27:14.197Z,49.40
2022-12-15T11:30:07.488Z,49.50
2022-12-15T11:32:41.615Z,49.60
2022-12-15T11:35:20.797Z,49.60
2022-12-15T11:38:30.105Z,49.70
2022-12-15T11:41:08.051Z,49.70
2022-12-15T11:44:04.294Z,49.80
2022-12-15T11:46:59.346Z,50.50
2022-12-15T11:49:48.132Z,49.90
2022-12-15T11:53:00.322Z,50.00
2022-12-15T11:56:00.091Z,50.10
2022-12-15T11:58:42.607Z,50.10
2022-12-15T12:01:29.140Z,50.30
2022-12-15T12:03:59.396Z,50.30
2022-12-15T12:06:37.269Z,50.30
2022-12-15T12:09:34.004Z,50.20
2022-12-15T12:12:38.917Z,50.40
2022-12-15T12:15:32.438Z,50.40
2022-12-15T12:18:17.806Z,50.60
2022-12-15T12:21:08.519Z,50.60
2022-12-15T12:24:05.378Z,50.60
2022-12-15T12:27:00.953Z,50.60
2022-12-15T12:29:40.334Z,50.70
2022-12-15T12:32:41.761Z,50.70
2022-12-15T12:35:57.870Z,50.70
2022-12-15T12:38:40.702Z,50.70
2022-12-15T12:41:16.700Z,50.90
2022-12-15T12:43:59.840Z,50.80
2022-12-15T12:46:33.018Z,50.80
2022-12-15T12:49:33.475Z,50.90
2022-12-15T12:52:07.327Z,50.80
2022-12-15T12:54:42.758Z,50.90
2022-12-15T12:57:16.186Z,50.90
2022-12-15T13:00:08.017Z,50.90
2022-12-15T13:02:40.154Z,50.90
2022-12-15T13:05:33.096Z,50.80
2022-12-15T13:08:10.449Z,50.80
2022-12-15T13:10:46.026Z,50.80
2022-12-15T13:13:35.210Z,50.80
2022-12-15T13:16:20.932Z,50.80
2022-12-15T13:19:07.070Z,50.80
2022-12-15T13:24:39.328Z,50.80
2022-12-15T13:27:13.067Z,50.80
2022-12-15T13:30:12.515Z,50.80
2022-12-15T13:32:45.786Z,50.80
2022-12-15T13:35:16.030Z,50.80
2022-12-15T13:38:04.547Z,50.70
2022-12-15T13:40:37.980Z,50.70
2022-12-15T13:43:08.235Z,50.80
2022-12-15T13:45:41.559Z,50.70
2022-12-15T13:48:30.176Z,50.80
2022-12-15T13:51:25.157Z,50.80
2022-12-15T13:54:06.791Z,50.80
2022-12-15T13:56:55.837Z,50.80
2022-12-15T14:00:09.501Z,50.90
2022-12-15T14:02:40.136Z,50.80
2022-12-15T14:05:23.643Z,50.90
2022-12-15T14:08:02.484Z,50.80
2022-12-15T14:10:53.252Z,50.80
2022-12-15T14:13:33.769Z,50.70
2022-12-15T14:16:30.528Z,50.80
2022-12-15T14:19:20.149Z,50.80
2022-12-15T14:22:01.235Z,50.80
2022-12-15T14:24:40.833Z,50.90
2022-12-15T14:27:11.568Z,50.90
2022-12-15T14:29:42.020Z,50.90
2022-12-15T14:32:13.356Z,50.80
2022-12-15T14:34:50.608Z,50.80
2022-12-15T14:37:23.584Z,50.80
2022-12-15T14:39:54.565Z,50.90
2022-12-15T14:42:28.250Z,50.80
2022-12-15T14:44:59.279Z,50.80
2022-12-15T14:47:37.174Z,50.80
2022-12-15T14:50:15.791Z,50.80
2022-12-15T14:52:48.955Z,50.80
2022-12-15T14:55:40.439Z,50.80
2022-12-15T14:58:37.048Z,51.50
2022-12-15T15:01:27.837Z,50.90
2022-12-15T15:03:06.889Z,49.20
2022-12-15T15:03:07.443Z,50.70
2022-12-15T15:04:09.619Z,50.90
2022-12-15T15:06:43.612Z,51.00
2022-12-15T15:09:39.325Z,51.00
2022-12-15T15:12:22.753Z,50.90
2022-12-15T15:15:07.072Z,51.20
2022-12-15T15:18:07.149Z,51.20
2022-12-15T15:20:37.663Z,51.20
2022-12-15T15:23:12.599Z,51.20
2022-12-15T15:25:53.401Z,51.20
2022-12-15T15:28:38.941Z,51.20
2022-12-15T15:31:28.958Z,51.20
2022-12-15T15:34:00.348Z,51.10
2022-12-15T15:36:39.755Z,51.20
2022-12-15T15:39:21.900Z,51.20
2022-12-15T15:41:52.135Z,51.20
2022-12-15T15:44:22.430Z,51.20
2022-12-15T15:46:54.614Z,51.10
2022-12-15T15:49:26.321Z,51.00
2022-12-15T15:51:58.645Z,51.10
2022-12-15T15:54:37.408Z,51.00
2022-12-15T15:57:07.677Z,51.00
2022-12-15T15:59:39.860Z,51.00
2022-12-15T16:02:11.734Z,51.00
2022-12-15T16:04:46.223Z,51.00
2022-12-15T16:07:25.716Z,51.60
2022-12-15T16:09:56.234Z,51.00
2022-12-15T16:12:32.967Z,51.00
2022-12-15T16:15:03.485Z,51.00
2022-12-15T16:17:33.799Z,51.00
2022-12-15T16:20:04.129Z,51.00
2022-12-15T16:22:35.307Z,51.00
2022-12-15T16:25:07.853Z,51.00
2022-12-15T16:27:38.083Z,51.00
2022-12-15T16:30:28.389Z,51.00
2022-12-15T16:32:58.865Z,51.00
2022-12-15T16:35:29.410Z,51.00
2022-12-15T16:38:00.340Z,51.00
2022-12-15T16:40:31.006Z,51.00
2022-12-15T16:43:03.774Z,51.00
2022-12-15T16:45:34.635Z,51.00
2022-12-15T16:48:05.109Z,51.00
2022-12-15T16:50:39.865Z,51.20
2022-12-15T16:53:34.613Z,51.20
2022-12-15T16:56:11.036Z,51.20
2022-12-15T16:58:41.257Z,51.20
2022-12-15T17:01:13.823Z,51.30
2022-12-15T17:03:44.756Z,51.30
2022-12-15T17:06:18.115Z,51.40
2022-12-15T17:08:54.476Z,51.40
2022-12-15T17:11:27.538Z,51.50
2022-12-15T17:14:00.561Z,51.50
2022-12-15T17:16:31.916Z,51.50
2022-12-15T17:19:02.779Z,51.50
2022-12-15T17:21:37.290Z,51.30
2022-12-15T17:24:11.020Z,51.40
2022-12-15T17:26:42.539Z,51.50
2022-12-15T17:29:27.525Z,51.60
2022-12-15T17:31:58.006Z,51.50
2022-12-15T17:34:32.334Z,51.50
2022-12-15T17:37:05.114Z,51.60
2022-12-15T17:39:37.197Z,51.60
2022-12-15T17:42:19.991Z,51.70
2022-12-15T17:44:51.768Z,51.70
2022-12-15T17:47:22.437Z,51.70
2022-12-15T17:49:52.740Z,51.80
2022-12-15T17:52:31.823Z,51.80
2022-12-15T17:55:02.491Z,51.80
2022-12-15T17:57:33.680Z,51.80
2022-12-15T18:00:05.738Z,51.80
2022-12-15T18:02:36.340Z,51.90
2022-12-15T18:05:07.063Z,52.00
2022-12-15T18:07:38.261Z,51.90
2022-12-15T18:10:09.153Z,51.90
2022-12-15T18:12:39.622Z,52.00
2022-12-15T18:15:24.172Z,52.10
2022-12-15T18:17:54.535Z,52.00
2022-12-15T18:20:25.268Z,52.10
2022-12-15T18:22:56.023Z,52.00
2022-12-15T18:25:31.807Z,52.00
2022-12-15T18:28:02.180Z,52.00
2022-12-15T18:30:32.560Z,52.10
2022-12-15T18:33:02.907Z,52.10
2022-12-15T18:35:43.175Z,52.10
2022-12-15T18:38:24.454Z,52.20
2022-12-15T18:40:58.789Z,52.20
2022-12-15T18:43:32.811Z,52.20
2022-12-15T18:46:03.671Z,52.20
2022-12-15T18:48:36.833Z,52.20
2022-12-15T18:51:27.078Z,52.30
2022-12-15T18:53:57.560Z,52.30
2022-12-15T18:56:27.747Z,52.30
2022-12-15T18:58:58.082Z,52.30
2022-12-15T19:01:28.415Z,52.30
2022-12-15T19:03:58.780Z,52.30
2022-12-15T19:06:37.601Z,52.30
2022-12-15T19:09:20.937Z,52.40
2022-12-15T19:12:10.561Z,52.40
2022-12-15T19:14:44.320Z,52.50
2022-12-15T19:17:37.337Z,52.50
2022-12-15T19:20:34.756Z,52.50
2022-12-15T19:23:05.055Z,52.50
2022-12-15T19:25:35.620Z,52.60
2022-12-15T19:28:06.270Z,52.50
2022-12-15T19:30:41.920Z,52.50
2022-12-15T19:33:14.315Z,52.50
2022-12-15T19:35:47.318Z,52.60
2022-12-15T19:38:36.018Z,52.70
2022-12-15T19:41:06.230Z,52.60
2022-12-15T19:43:36.941Z,52.70
2022-12-15T19:46:07.468Z,52.70
2022-12-15T19:48:37.711Z,52.70
2022-12-15T19:51:13.042Z,52.80
2022-12-15T19:53:43.423Z,52.80
2022-12-15T19:56:25.813Z,52.80
2022-12-15T19:58:56.157Z,52.80
2022-12-15T20:01:26.607Z,52.90
2022-12-15T20:03:56.845Z,53.00
2022-12-15T20:06:29.423Z,53.10
2022-12-15T20:08:59.858Z,53.10
2022-12-15T20:11:33.241Z,53.00
2022-12-15T20:14:03.882Z,53.10
2022-12-15T20:16:34.578Z,53.10
2022-12-15T20:19:04.944Z,53.10
2022-12-15T20:21:40.091Z,53.10
2022-12-15T20:24:10.575Z,53.10
2022-12-15T20:26:42.706Z,53.20
2022-12-15T20:29:34.337Z,53.20
2022-12-15T20:32:04.742Z,53.20
2022-12-15T20:34:34.992Z,53.20
2022-12-15T20:37:07.106Z,53.20
2022-12-15T20:39:37.277Z,53.30
2022-12-15T20:42:08.192Z,53.30
2022-12-15T20:44:38.395Z,53.30
2022-12-15T20:47:09.233Z,53.40
2022-12-15T20:49:39.539Z,53.30
2022-12-15T20:52:12.773Z,53.40
2022-12-15T20:54:44.520Z,53.40
2022-12-15T20:57:15.459Z,53.50
2022-12-15T20:59:46.508Z,53.40
2022-12-15T21:02:25.423Z,53.50
2022-12-15T21:04:56.828Z,53.50
2022-12-15T21:07:27.126Z,53.50
2022-12-15T21:09:57.321Z,54.10
2022-12-15T21:12:30.355Z,53.50
2022-12-15T21:15:00.661Z,53.40
2022-12-15T21:17:31.536Z,53.60
2022-12-15T21:20:01.717Z,53.70
2022-12-15T21:22:32.069Z,53.70
2022-12-15T21:25:02.895Z,53.70
2022-12-15T21:27:33.259Z,53.20
2022-12-15T21:30:03.567Z,52.30
2022-12-15T21:32:33.909Z,51.80
2022-12-15T21:35:04.161Z,51.70
2022-12-15T21:37:34.591Z,52.00
2022-12-15T21:40:06.690Z,51.70
2022-12-15T21:42:38.780Z,51.50
2022-12-15T21:45:29.110Z,51.90
2022-12-15T21:48:17.128Z,51.70
2022-12-15T21:50:50.377Z,51.40
2022-12-15T21:53:22.212Z,51.60
2022-12-15T21:55:52.472Z,51.30
2022-12-15T21:58:26.812Z,51.30
2022-12-15T22:00:57.214Z,51.50
2022-12-15T22:03:27.732Z,51.80
2022-12-15T22:05:58.067Z,52.20
2022-12-15T22:08:33.286Z,52.40
2022-12-15T22:11:03.759Z,52.60
2022-12-15T22:13:34.544Z,52.50
2022-12-15T22:16:04.766Z,52.60
2022-12-15T22:18:35.594Z,52.60
2022-12-15T22:21:06.197Z,52.50
2022-12-15T22:23:36.985Z,52.40
2022-12-15T22:26:07.314Z,52.40
2022-12-15T22:28:37.732Z,52.30
2022-12-15T22:31:08.809Z,52.20
2022-12-15T22:33:39.282Z,52.20
2022-12-15T22:36:09.775Z,52.10
2022-12-15T22:38:40.225Z,53.20
2022-12-15T22:41:22.576Z,52.50
2022-12-15T22:43:58.141Z,52.20
2022-12-15T22:46:28.342Z,52.10
2022-12-15T22:48:59.089Z,52.60
2022-12-15T22:51:29.380Z,51.90
2022-12-15T22:53:59.875Z,51.80
2022-12-15T22:56:35.707Z,51.90
2022-12-15T22:59:12.601Z,51.80
2022-12-15T23:01:42.856Z,51.80
2022-12-15T23:04:13.636Z,51.80
2022-12-15T23:06:43.977Z,51.90
2022-12-15T23:09:14.317Z,51.80
2022-12-15T23:11:45.637Z,51.80
2022-12-15T23:14:20.809Z,51.90
2022-12-15T23:16:51.043Z,51.80
2022-12-15T23:19:27.489Z,51.70
2022-12-15T23:21:57.763Z,51.70
2022-12-15T23:24:28.688Z,51.70
2022-12-15T23:26:58.885Z,51.70
2022-12-15T23:29:29.184Z,51.60
2022-12-15T23:31:59.592Z,51.60
2022-12-15T23:34:30.027Z,51.50
2022-12-15T23:37:00.331Z,51.40
2022-12-15T23:39:30.695Z,51.10
2022-12-15T23:42:00.956Z,51.00
2022-12-15T23:44:31.820Z,50.90
2022-12-15T23:47:02.166Z,51.10
2022-12-15T23:49:32.686Z,50.90
2022-12-15T23:52:02.972Z,50.90
2022-12-15T23:54:33.144Z,50.80
2022-12-15T23:57:03.915Z,50.60
2022-12-15T23:59:34.146Z,50.60
